createdAt,value
2018-04-07T00:00:45.085Z,97703.00
2018-04-07T00:01:50.836Z,97696.50
2018-04-07T00:02:56.472Z,97693.45
2018-04-07T00:04:02.173Z,97694.08
2018-04-07T00:05:07.591Z,97701.57
2018-04-07T00:06:13.535Z,97696.58
2018-04-07T00:07:19.261Z,97701.79
2018-04-07T00:08:25.008Z,97703.80
2018-04-07T00:09:30.637Z,97707.22
2018-04-07T00:10:36.360Z,97703.95
2018-04-07T00:11:42.062Z,97700.03
2018-04-07T00:12:47.746Z,97703.48
2018-04-07T00:13:53.051Z,97702.58
2018-04-07T00:14:58.533Z,97705.09
2018-04-07T00:16:03.946Z,97700.91
2018-04-07T00:17:09.441Z,97702.34
2018-04-07T00:18:15.073Z,97702.92
2018-04-07T00:19:20.602Z,97696.20
2018-04-07T00:20:26.186Z,97696.22
2018-04-07T00:21:31.767Z,97698.63
2018-04-07T00:22:37.278Z,97698.35
2018-04-07T00:23:42.870Z,97697.37
2018-04-07T00:24:48.732Z,97703.95
2018-04-07T00:25:54.027Z,97701.97
2018-04-07T00:27:00.361Z,97703.71
2018-04-07T00:28:05.997Z,97700.08
2018-04-07T00:29:11.636Z,97698.41
2018-04-07T00:30:17.148Z,97700.11
2018-04-07T00:31:23.088Z,97700.23
2018-04-07T00:32:28.709Z,97699.13
2018-04-07T00:33:34.360Z,97700.52
2018-04-07T00:34:39.798Z,97696.12
2018-04-07T00:35:45.551Z,97695.91
2018-04-07T00:36:50.964Z,97705.83
2018-04-07T00:37:56.749Z,97698.03
2018-04-07T00:39:02.186Z,97691.55
2018-04-07T00:40:08.326Z,97693.33
2018-04-07T00:41:14.019Z,97695.56
2018-04-07T00:42:19.566Z,97698.06
2018-04-07T00:43:25.498Z,97692.92
2018-04-07T00:44:31.357Z,97694.98
2018-04-07T00:45:36.863Z,97702.41
2018-04-07T00:46:42.288Z,97693.34
2018-04-07T00:47:47.849Z,97697.64
2018-04-07T00:48:53.546Z,97695.62
2018-04-07T00:49:59.204Z,97700.49
2018-04-07T00:51:05.157Z,97695.74
2018-04-07T00:52:10.543Z,97699.50
2018-04-07T00:53:15.891Z,97696.47
2018-04-07T00:54:21.380Z,97695.16
2018-04-07T00:55:26.725Z,97696.45
2018-04-07T00:56:32.195Z,97696.88
2018-04-07T00:57:38.129Z,97701.66
2018-04-07T00:58:43.791Z,97693.59
2018-04-07T00:59:49.803Z,97692.14
2018-04-07T01:00:55.460Z,97689.17
2018-04-07T01:02:00.971Z,97689.03
2018-04-07T01:03:06.484Z,97690.87
2018-04-07T01:04:13.818Z,97678.75
2018-04-07T01:05:19.441Z,97683.04
2018-04-07T01:06:25.297Z,97670.39
2018-04-07T01:07:30.946Z,97685.30
2018-04-07T01:08:36.644Z,97690.39
2018-04-07T01:09:42.185Z,97686.47
2018-04-07T01:10:47.800Z,97691.20
2018-04-07T01:11:53.312Z,97691.49
2018-04-07T01:12:58.877Z,97692.86
2018-04-07T01:14:04.705Z,97687.23
2018-04-07T01:15:17.640Z,97697.48
2018-04-07T01:16:23.569Z,97688.88
2018-04-07T01:17:29.577Z,97687.38
2018-04-07T01:18:35.207Z,97688.30
2018-04-07T01:19:41.033Z,97683.05
2018-04-07T01:20:46.389Z,97690.45
2018-04-07T01:21:52.030Z,97688.02
2018-04-07T01:22:58.112Z,97691.66
2018-04-07T01:24:03.826Z,97680.46
2018-04-07T01:25:09.345Z,97674.80
2018-04-07T01:26:15.168Z,97678.89
2018-04-07T01:27:20.842Z,97684.47
2018-04-07T01:28:26.409Z,97680.20
2018-04-07T01:29:32.531Z,97679.44
2018-04-07T01:30:38.346Z,97678.61
2018-04-07T01:31:43.832Z,97669.48
2018-04-07T01:32:49.418Z,97678.42
2018-04-07T01:33:55.162Z,97674.46
2018-04-07T01:35:00.758Z,97676.20
2018-04-07T01:36:06.728Z,97672.73
2018-04-07T01:37:12.606Z,97677.37
2018-04-07T01:38:18.296Z,97679.52
2018-04-07T01:39:24.238Z,97674.51
2018-04-07T01:40:30.326Z,97677.42
2018-04-07T01:41:36.200Z,97672.24
2018-04-07T01:42:42.420Z,97672.09
2018-04-07T01:43:48.111Z,97666.55
2018-04-07T01:44:54.604Z,97665.45
2018-04-07T01:46:00.986Z,97671.69
2018-04-07T01:47:07.958Z,97671.16
2018-04-07T01:48:14.315Z,97675.36
2018-04-07T01:49:20.165Z,97674.19
2018-04-07T01:50:25.903Z,97679.73
2018-04-07T01:51:31.909Z,97670.69
2018-04-07T01:52:37.674Z,97679.52
2018-04-07T01:53:43.168Z,97672.94
2018-04-07T01:54:49.063Z,97671.72
2018-04-07T01:55:55.005Z,97669.38
2018-04-07T01:57:00.911Z,97668.85
2018-04-07T01:58:06.835Z,97677.34
2018-04-07T01:59:12.853Z,97678.35
2018-04-07T02:00:18.413Z,97676.50
2018-04-07T02:01:24.112Z,97673.31
2018-04-07T02:02:31.182Z,97678.20
2018-04-07T02:03:37.983Z,97680.70
2018-04-07T02:04:43.931Z,97681.50
2018-04-07T02:05:49.921Z,97680.30
2018-04-07T02:06:57.343Z,97676.94
2018-04-07T02:08:03.272Z,97679.94
2018-04-07T02:09:09.785Z,97680.38
2018-04-07T02:10:16.080Z,97678.15
2018-04-07T02:11:22.250Z,97678.61
2018-04-07T02:12:29.064Z,97682.33
2018-04-07T02:13:34.800Z,97682.08
2018-04-07T02:14:40.678Z,97683.41
2018-04-07T02:15:46.871Z,97687.62
2018-04-07T02:16:52.993Z,97689.52
2018-04-07T02:17:59.016Z,97688.27
2018-04-07T02:19:04.806Z,97691.42
2018-04-07T02:20:10.585Z,97691.30
2018-04-07T02:21:16.292Z,97694.33
2018-04-07T02:22:22.369Z,97693.40
2018-04-07T02:23:28.420Z,97692.50
2018-04-07T02:24:34.338Z,97689.36
2018-04-07T02:25:40.027Z,97686.86
2018-04-07T02:26:46.224Z,97688.27
2018-04-07T02:27:52.233Z,97682.08
2018-04-07T02:28:58.161Z,97686.45
2018-04-07T02:30:03.788Z,97683.34
2018-04-07T02:31:09.314Z,97675.19
2018-04-07T02:32:14.773Z,97676.64
2018-04-07T02:33:21.887Z,97682.37
2018-04-07T02:34:27.931Z,97683.75
2018-04-07T02:35:33.893Z,97682.94
2018-04-07T02:36:39.518Z,97682.29
2018-04-07T02:37:44.980Z,97686.86
2018-04-07T02:38:50.428Z,97685.23
2018-04-07T02:39:56.110Z,97675.94
2018-04-07T02:41:02.189Z,97683.05
2018-04-07T02:42:08.397Z,97680.59
2018-04-07T02:43:14.431Z,97678.05
2018-04-07T02:44:20.077Z,97675.62
2018-04-07T02:45:25.320Z,97674.29
2018-04-07T02:46:30.731Z,97672.70
2018-04-07T02:47:36.994Z,97667.26
2018-04-07T02:48:42.360Z,97667.45
2018-04-07T02:49:48.061Z,97666.70
2018-04-07T02:50:54.784Z,97666.41
2018-04-07T02:52:00.535Z,97662.66
2018-04-07T02:53:05.988Z,97663.94
2018-04-07T02:54:11.912Z,97658.94
2018-04-07T02:55:17.611Z,97663.38
2018-04-07T02:56:23.707Z,97666.97
2018-04-07T02:57:29.840Z,97660.71
2018-04-07T02:58:36.198Z,97660.31
2018-04-07T02:59:41.818Z,97667.09
2018-04-07T03:00:47.762Z,97664.59
2018-04-07T03:01:53.401Z,97667.22
2018-04-07T03:02:59.048Z,97666.61
2018-04-07T03:04:05.563Z,97663.22
2018-04-07T03:05:10.775Z,97660.59
2018-04-07T03:06:16.570Z,97663.17
2018-04-07T03:07:22.352Z,97664.66
2018-04-07T03:08:27.566Z,97658.69
2018-04-07T03:09:32.929Z,97659.70
2018-04-07T03:10:38.379Z,97656.44
2018-04-07T03:11:43.654Z,97656.14
2018-04-07T03:12:49.020Z,97653.13
2018-04-07T03:13:54.895Z,97649.77
2018-04-07T03:15:00.709Z,97652.27
2018-04-07T03:16:06.031Z,97645.43
2018-04-07T03:17:11.480Z,97652.01
2018-04-07T03:18:16.805Z,97648.45
2018-04-07T03:19:22.340Z,97647.41
2018-04-07T03:20:28.747Z,97649.86
2018-04-07T03:21:34.346Z,97643.29
2018-04-07T03:22:39.961Z,97647.81
2018-04-07T03:23:45.376Z,97644.78
2018-04-07T03:24:51.300Z,97649.86
2018-04-07T03:25:57.055Z,97649.10
2018-04-07T03:27:02.636Z,97649.67
2018-04-07T03:28:08.295Z,97649.27
2018-04-07T03:29:13.486Z,97653.49
2018-04-07T03:30:18.697Z,97648.23
2018-04-07T03:31:23.961Z,97656.63
2018-04-07T03:32:29.222Z,97655.50
2018-04-07T03:33:35.303Z,97654.95
2018-04-07T03:34:40.879Z,97654.19
2018-04-07T03:35:45.944Z,97658.63
2018-04-07T03:36:51.305Z,97655.95
2018-04-07T03:37:56.486Z,97650.66
2018-04-07T03:39:01.984Z,97659.09
2018-04-07T03:40:07.740Z,97649.86
2018-04-07T03:41:13.503Z,97655.33
2018-04-07T03:42:18.972Z,97658.08
2018-04-07T03:43:24.582Z,97658.60
2018-04-07T03:44:30.141Z,97654.39
2018-04-07T03:45:35.658Z,97654.95
2018-04-07T03:46:41.261Z,97656.08
2018-04-07T03:47:46.813Z,97657.13
2018-04-07T03:48:52.175Z,97655.65
2018-04-07T03:49:57.721Z,97650.07
2018-04-07T03:51:03.381Z,97650.69
2018-04-07T03:52:08.817Z,97650.36
2018-04-07T03:53:14.232Z,97650.12
2018-04-07T03:54:19.605Z,97647.72
2018-04-07T03:55:24.808Z,97641.83
2018-04-07T03:56:30.162Z,97647.19
2018-04-07T03:57:35.590Z,97637.73
2018-04-07T03:58:40.990Z,97644.11
2018-04-07T03:59:46.747Z,97647.49
2018-04-07T04:00:51.844Z,97640.02
2018-04-07T04:01:57.338Z,97643.89
2018-04-07T04:03:02.539Z,97640.99
2018-04-07T04:04:08.685Z,97639.73
2018-04-07T04:05:14.129Z,97644.30
2018-04-07T04:06:19.601Z,97636.22
2018-04-07T04:07:25.979Z,97640.53
2018-04-07T04:08:31.112Z,97632.22
2018-04-07T04:09:38.278Z,97630.16
2018-04-07T04:10:44.092Z,97632.48
2018-04-07T04:11:49.352Z,97638.58
2018-04-07T04:12:54.901Z,97633.39
2018-04-07T04:14:00.941Z,97634.02
2018-04-07T04:15:06.397Z,97626.70
2018-04-07T04:16:11.829Z,97628.48
2018-04-07T04:17:17.529Z,97630.98
2018-04-07T04:18:22.676Z,97631.73
2018-04-07T04:19:28.659Z,97633.66
2018-04-07T04:20:33.975Z,97631.84
2018-04-07T04:21:39.138Z,97635.42
2018-04-07T04:22:44.692Z,97633.23
2018-04-07T04:23:50.911Z,97632.23
2018-04-07T04:24:56.388Z,97624.09
2018-04-07T04:26:02.059Z,97632.17
2018-04-07T04:27:07.342Z,97630.56
2018-04-07T04:28:13.614Z,97627.33
2018-04-07T04:29:18.942Z,97621.80
2018-04-07T04:30:24.386Z,97620.84
2018-04-07T04:31:30.733Z,97621.80
2018-04-07T04:32:36.400Z,97621.17
2018-04-07T04:33:41.800Z,97608.70
2018-04-07T04:34:47.655Z,97612.61
2018-04-07T04:35:53.113Z,97613.97
2018-04-07T04:36:58.696Z,97619.12
2018-04-07T04:38:04.141Z,97613.05
2018-04-07T04:39:09.643Z,97608.95
2018-04-07T04:40:15.381Z,97611.89
2018-04-07T04:41:21.290Z,97615.26
2018-04-07T04:42:26.769Z,97607.66
2018-04-07T04:43:32.108Z,97614.47
2018-04-07T04:44:37.432Z,97614.45
2018-04-07T04:45:43.015Z,97613.20
2018-04-07T04:46:48.255Z,97613.09
2018-04-07T04:47:53.688Z,97621.15
2018-04-07T04:48:59.272Z,97624.78
2018-04-07T04:50:04.573Z,97621.09
2018-04-07T04:51:10.066Z,97620.20
2018-04-07T04:52:15.918Z,97625.73
2018-04-07T04:53:21.477Z,97619.84
2018-04-07T04:54:26.855Z,97624.05
2018-04-07T04:55:32.537Z,97612.86
2018-04-07T04:56:37.752Z,97622.42
2018-04-07T04:57:43.552Z,97624.83
2018-04-07T04:58:49.563Z,97620.82
2018-04-07T04:59:55.327Z,97624.45
2018-04-07T05:01:00.882Z,97619.47
2018-04-07T05:02:06.639Z,97620.53
2018-04-07T05:03:12.304Z,97618.90
2018-04-07T05:04:18.389Z,97619.11
2018-04-07T05:05:23.919Z,97616.94
2018-04-07T05:06:29.386Z,97623.92
2018-04-07T05:07:35.157Z,97620.98
2018-04-07T05:08:40.805Z,97626.09
2018-04-07T05:09:46.045Z,97621.32
2018-04-07T05:10:54.248Z,97623.16
2018-04-07T05:11:59.758Z,97625.73
2018-04-07T05:13:05.545Z,97621.47
2018-04-07T05:14:11.046Z,97613.75
2018-04-07T05:15:16.770Z,97618.11
2018-04-07T05:16:22.446Z,97613.51
2018-04-07T05:17:28.034Z,97615.77
2018-04-07T05:18:33.540Z,97614.38
2018-04-07T05:19:39.369Z,97614.22
2018-04-07T05:20:44.826Z,97613.48
2018-04-07T05:21:50.392Z,97611.80
2018-04-07T05:22:56.018Z,97611.20
2018-04-07T05:24:01.610Z,97616.80
2018-04-07T05:25:07.114Z,97616.86
2018-04-07T05:26:12.447Z,97615.20
2018-04-07T05:27:17.727Z,97619.27
2018-04-07T05:28:24.170Z,97620.50
2018-04-07T05:29:30.067Z,97620.42
2018-04-07T05:30:37.051Z,97616.19
2018-04-07T05:31:42.817Z,97619.27
2018-04-07T05:32:48.814Z,97615.37
2018-04-07T05:33:54.714Z,97623.75
2018-04-07T05:35:00.390Z,97618.91
2018-04-07T05:36:06.303Z,97619.48
2018-04-07T05:37:11.658Z,97616.69
2018-04-07T05:38:17.200Z,97612.24
2018-04-07T05:39:23.836Z,97613.70
2018-04-07T05:40:35.287Z,97621.98
2018-04-07T05:41:41.186Z,97618.06
2018-04-07T05:42:47.138Z,97618.27
2018-04-07T05:43:52.980Z,97622.99
2018-04-07T05:44:58.652Z,97617.22
2018-04-07T05:46:05.164Z,97620.77
2018-04-07T05:47:11.205Z,97623.03
2018-04-07T05:48:16.646Z,97623.80
2018-04-07T05:49:22.078Z,97626.67
2018-04-07T05:50:27.672Z,97621.82
2018-04-07T05:51:33.251Z,97624.33
2018-04-07T05:52:39.291Z,97619.48
2018-04-07T05:53:45.290Z,97623.30
2018-04-07T05:54:51.380Z,97624.22
2018-04-07T05:55:57.921Z,97623.73
2018-04-07T05:57:03.561Z,97624.55
2018-04-07T05:58:09.178Z,97625.83
2018-04-07T05:59:14.900Z,97626.55
2018-04-07T06:00:20.818Z,97628.48
2018-04-07T06:01:26.574Z,97630.28
2018-04-07T06:02:32.311Z,97632.00
2018-04-07T06:03:38.039Z,97631.89
2018-04-07T06:04:44.006Z,97634.77
2018-04-07T06:05:49.991Z,97632.06
2018-04-07T06:06:56.200Z,97637.20
2018-04-07T06:08:01.779Z,97632.06
2018-04-07T06:09:08.059Z,97630.39
2018-04-07T06:10:13.655Z,97631.09
2018-04-07T06:11:19.459Z,97636.28
2018-04-07T06:12:25.189Z,97632.77
2018-04-07T06:13:31.188Z,97633.27
2018-04-07T06:14:36.903Z,97628.39
2018-04-07T06:15:42.492Z,97628.22
2018-04-07T06:16:49.698Z,97635.48
2018-04-07T06:17:55.419Z,97629.09
2018-04-07T06:19:04.039Z,97625.39
2018-04-07T06:20:09.905Z,97637.59
2018-04-07T06:21:15.428Z,97631.92
2018-04-07T06:22:20.732Z,97632.19
2018-04-07T06:23:26.332Z,97635.70
2018-04-07T06:24:31.814Z,97632.90
2018-04-07T06:25:37.594Z,97628.95
2018-04-07T06:26:45.175Z,97633.53
2018-04-07T06:27:50.781Z,97630.61
2018-04-07T06:28:56.312Z,97631.03
2018-04-07T06:30:01.974Z,97635.36
2018-04-07T06:31:07.709Z,97630.50
2018-04-07T06:32:13.124Z,97632.73
2018-04-07T06:33:18.954Z,97636.14
2018-04-07T06:34:24.686Z,97630.91
2018-04-07T06:35:31.377Z,97637.25
2018-04-07T06:36:38.074Z,97632.22
2018-04-07T06:37:44.214Z,97633.50
2018-04-07T06:38:49.722Z,97633.55
2018-04-07T06:39:55.441Z,97633.50
2018-04-07T06:41:01.210Z,97637.31
2018-04-07T06:42:06.909Z,97636.88
2018-04-07T06:43:12.672Z,97648.91
2018-04-07T06:44:18.190Z,97637.34
2018-04-07T06:45:23.899Z,97639.48
2018-04-07T06:46:30.329Z,97636.97
2018-04-07T06:47:36.046Z,97639.73
2018-04-07T06:48:41.737Z,97635.45
2018-04-07T06:49:47.509Z,97635.25
2018-04-07T06:50:53.229Z,97637.53
2018-04-07T06:51:59.001Z,97636.08
2018-04-07T06:53:05.013Z,97630.39
2018-04-07T06:54:10.732Z,97634.28
2018-04-07T06:55:16.176Z,97632.90
2018-04-07T06:56:22.444Z,97634.05
2018-04-07T06:57:28.862Z,97637.92
2018-04-07T06:58:37.432Z,97632.22
2018-04-07T06:59:45.194Z,97636.72
2018-04-07T07:00:51.213Z,97632.09
2018-04-07T07:01:57.311Z,97620.73
2018-04-07T07:03:05.539Z,97625.48
2018-04-07T07:04:12.597Z,97626.75
2018-04-07T07:05:18.520Z,97630.44
2018-04-07T07:06:24.340Z,97618.56
2018-04-07T07:07:29.877Z,97623.82
2018-04-07T07:08:35.432Z,97626.89
2018-04-07T07:09:41.004Z,97628.86
2018-04-07T07:10:46.631Z,97628.20
2018-04-07T07:11:52.225Z,97637.58
2018-04-07T07:12:57.960Z,97638.59
2018-04-07T07:14:03.142Z,97634.02
2018-04-07T07:15:09.064Z,97631.27
2018-04-07T07:16:14.890Z,97627.64
2018-04-07T07:17:22.368Z,97630.42
2018-04-07T07:18:30.525Z,97627.41
2018-04-07T07:19:36.996Z,97624.03
2018-04-07T07:20:42.541Z,97620.05
2018-04-07T07:21:48.604Z,97626.56
2018-04-07T07:22:54.005Z,97622.78
2018-04-07T07:23:59.427Z,97627.59
2018-04-07T07:25:05.291Z,97624.71
2018-04-07T07:26:10.825Z,97623.05
2018-04-07T07:27:16.344Z,97619.78
2018-04-07T07:28:21.805Z,97622.67
2018-04-07T07:29:27.207Z,97633.36
2018-04-07T07:30:32.859Z,97626.42
2018-04-07T07:31:38.948Z,97624.52
2018-04-07T07:32:44.457Z,97625.92
2018-04-07T07:33:49.932Z,97618.37
2018-04-07T07:34:55.990Z,97623.33
2018-04-07T07:36:01.491Z,97620.16
2018-04-07T07:37:06.720Z,97620.11
2018-04-07T07:38:12.583Z,97621.45
2018-04-07T07:39:17.959Z,97625.92
2018-04-07T07:40:23.459Z,97623.53
2018-04-07T07:41:28.821Z,97620.36
2018-04-07T07:42:34.183Z,97616.61
2018-04-07T07:43:39.336Z,97622.87
2018-04-07T07:44:45.276Z,97620.18
2018-04-07T07:45:50.637Z,97617.05
2018-04-07T07:46:56.043Z,97620.05
2018-04-07T07:48:01.465Z,97626.14
2018-04-07T07:49:06.868Z,97613.74
2018-04-07T07:50:12.027Z,97619.26
2018-04-07T07:51:17.971Z,97611.52
2018-04-07T07:52:23.234Z,97606.02
2018-04-07T07:53:28.541Z,97620.34
2018-04-07T07:54:34.161Z,97612.64
2018-04-07T07:55:39.612Z,97614.13
2018-04-07T07:56:44.765Z,97608.79
2018-04-07T07:57:50.584Z,97608.05
2018-04-07T07:58:56.085Z,97608.80
2018-04-07T08:00:01.589Z,97601.33
2018-04-07T08:01:07.118Z,97615.58
2018-04-07T08:02:12.478Z,97613.93
2018-04-07T08:03:17.887Z,97607.31
2018-04-07T08:04:23.233Z,97608.64
2018-04-07T08:05:29.003Z,97611.17
2018-04-07T08:06:34.752Z,97613.63
2018-04-07T08:07:40.793Z,97611.39
2018-04-07T08:08:46.762Z,97608.64
2018-04-07T08:09:53.000Z,97609.25
2018-04-07T08:10:59.992Z,97607.18
2018-04-07T08:12:06.697Z,97608.64
2018-04-07T08:13:12.935Z,97602.33
2018-04-07T08:14:18.786Z,97604.57
2018-04-07T08:15:24.200Z,97611.12
2018-04-07T08:16:30.136Z,97609.36
2018-04-07T08:17:35.572Z,97603.84
2018-04-07T08:18:41.034Z,97609.56
2018-04-07T08:19:46.495Z,97603.36
2018-04-07T08:20:52.969Z,97610.31
2018-04-07T08:21:58.400Z,97610.14
2018-04-07T08:23:05.026Z,97610.19
2018-04-07T08:24:10.662Z,97617.94
2018-04-07T08:25:16.313Z,97601.58
2018-04-07T08:26:21.847Z,97607.03
2018-04-07T08:27:27.318Z,97620.02
2018-04-07T08:28:32.863Z,97613.93
2018-04-07T08:29:38.697Z,97601.02
2018-04-07T08:30:43.785Z,97620.59
2018-04-07T08:31:49.164Z,97622.86
2018-04-07T08:32:55.000Z,97622.56
2018-04-07T08:34:02.962Z,97608.96
2018-04-07T08:35:10.834Z,97616.34
2018-04-07T08:36:18.365Z,97620.12
2018-04-07T08:37:24.429Z,97618.97
2018-04-07T08:38:30.365Z,97622.70
2018-04-07T08:39:37.733Z,97621.06
2018-04-07T08:40:44.722Z,97627.02
2018-04-07T08:41:50.736Z,97621.97
2018-04-07T08:42:57.152Z,97618.01
2018-04-07T08:44:04.386Z,97619.21
2018-04-07T08:45:10.735Z,97615.78
2018-04-07T08:46:16.781Z,97618.97
2018-04-07T08:47:23.796Z,97617.30
2018-04-07T08:48:30.761Z,97621.06
2018-04-07T08:49:36.483Z,97610.53
2018-04-07T08:50:41.974Z,97623.78
2018-04-07T08:51:47.504Z,97609.39
2018-04-07T08:52:53.131Z,97614.38
2018-04-07T08:53:59.329Z,97610.83
2018-04-07T08:55:05.034Z,97610.94
2018-04-07T08:56:10.749Z,97613.38
2018-04-07T08:57:16.499Z,97620.68
2018-04-07T08:58:22.191Z,97615.12
2018-04-07T08:59:28.312Z,97619.92
2018-04-07T09:00:34.876Z,97619.52
2018-04-07T09:01:41.785Z,97621.72
2018-04-07T09:02:48.680Z,97620.41
2018-04-07T09:03:56.461Z,97623.66
2018-04-07T09:05:03.407Z,97622.92
2018-04-07T09:06:09.106Z,97620.48
2018-04-07T09:07:15.013Z,97622.87
2018-04-07T09:08:20.613Z,97617.14
2018-04-07T09:09:26.590Z,97621.23
2018-04-07T09:10:32.129Z,97621.70
2018-04-07T09:11:37.992Z,97619.21
2018-04-07T09:12:43.748Z,97615.84
2018-04-07T09:13:50.022Z,97613.95
2018-04-07T09:14:55.608Z,97627.42
2018-04-07T09:16:01.096Z,97626.03
2018-04-07T09:17:09.911Z,97613.47
2018-04-07T09:18:16.307Z,97618.00
2018-04-07T09:19:22.666Z,97620.88
2018-04-07T09:20:30.547Z,97618.84
2018-04-07T09:21:37.778Z,97620.02
2018-04-07T09:22:43.709Z,97618.59
2018-04-07T09:23:49.033Z,97616.05
2018-04-07T09:24:54.615Z,97616.84
2018-04-07T09:26:00.265Z,97616.77
2018-04-07T09:27:06.396Z,97622.33
2018-04-07T09:28:12.004Z,97619.44
2018-04-07T09:29:17.684Z,97613.72
2018-04-07T09:30:23.207Z,97610.14
2018-04-07T09:31:28.483Z,97619.45
2018-04-07T09:32:34.188Z,97616.96
2018-04-07T09:33:39.843Z,97620.08
2018-04-07T09:34:45.423Z,97614.48
2018-04-07T09:35:50.897Z,97611.39
2018-04-07T09:36:56.449Z,97611.48
2018-04-07T09:38:02.111Z,97610.28
2018-04-07T09:39:07.983Z,97599.96
2018-04-07T09:40:14.061Z,97605.55
2018-04-07T09:41:19.553Z,97603.19
2018-04-07T09:42:24.969Z,97607.20
2018-04-07T09:43:30.782Z,97609.28
2018-04-07T09:44:36.526Z,97605.64
2018-04-07T09:45:42.545Z,97606.23
2018-04-07T09:46:49.372Z,97618.01
2018-04-07T09:47:56.417Z,97610.06
2018-04-07T09:49:04.004Z,97611.15
2018-04-07T09:50:09.885Z,97603.62
2018-04-07T09:51:15.996Z,97616.22
2018-04-07T09:52:21.767Z,97603.41
2018-04-07T09:53:28.472Z,97599.35
2018-04-07T09:54:34.073Z,97598.09
2018-04-07T09:55:39.713Z,97592.53
2018-04-07T09:56:45.219Z,97594.22
2018-04-07T09:57:50.882Z,97578.55
2018-04-07T09:58:56.366Z,97587.72
2018-04-07T10:00:02.050Z,97583.59
2018-04-07T10:01:07.795Z,97589.59
2018-04-07T10:02:18.315Z,97585.81
2018-04-07T10:03:24.223Z,97589.18
2018-04-07T10:04:33.137Z,97587.61
2018-04-07T10:05:39.059Z,97590.84
2018-04-07T10:06:45.804Z,97596.19
2018-04-07T10:07:51.447Z,97592.55
2018-04-07T10:08:57.070Z,97594.98
2018-04-07T10:10:02.407Z,97600.36
2018-04-07T10:11:08.034Z,97584.84
2018-04-07T10:12:13.464Z,97589.87
2018-04-07T10:13:19.380Z,97586.39
2018-04-07T10:14:25.068Z,97585.77
2018-04-07T10:15:30.592Z,97584.58
2018-04-07T10:16:36.298Z,97583.91
2018-04-07T10:17:41.876Z,97581.81
2018-04-07T10:18:47.497Z,97575.14
2018-04-07T10:19:54.139Z,97580.45
2018-04-07T10:21:00.150Z,97575.45
2018-04-07T10:22:05.645Z,97577.06
2018-04-07T10:23:11.228Z,97580.03
2018-04-07T10:24:16.637Z,97587.59
2018-04-07T10:25:22.726Z,97568.05
2018-04-07T10:26:28.792Z,97579.41
2018-04-07T10:27:34.958Z,97573.25
2018-04-07T10:28:41.398Z,97567.02
2018-04-07T10:29:47.392Z,97574.66
2018-04-07T10:30:54.850Z,97570.95
2018-04-07T10:32:02.077Z,97569.77
2018-04-07T10:33:07.618Z,97571.48
2018-04-07T10:34:14.212Z,97564.08
2018-04-07T10:35:19.580Z,97564.55
2018-04-07T10:36:25.272Z,97564.64
2018-04-07T10:37:31.704Z,97564.70
2018-04-07T10:38:37.748Z,97558.28
2018-04-07T10:39:43.165Z,97548.62
2018-04-07T10:40:48.812Z,97553.16
2018-04-07T10:41:54.504Z,97549.13
2018-04-07T10:42:59.979Z,97543.64
2018-04-07T10:44:05.557Z,97540.25
2018-04-07T10:45:11.466Z,97532.98
2018-04-07T10:46:16.864Z,97533.45
2018-04-07T10:47:22.273Z,97537.84
2018-04-07T10:48:27.862Z,97537.40
2018-04-07T10:49:33.378Z,97535.38
2018-04-07T10:50:38.865Z,97538.83
2018-04-07T10:51:44.675Z,97540.87
2018-04-07T10:52:50.200Z,97533.63
2018-04-07T10:53:55.521Z,97539.08
2018-04-07T10:55:01.637Z,97531.13
2018-04-07T10:56:07.164Z,97533.03
2018-04-07T10:57:12.371Z,97526.33
2018-04-07T10:58:18.328Z,97523.34
2018-04-07T10:59:23.511Z,97523.08
2018-04-07T11:00:28.758Z,97528.72
2018-04-07T11:01:34.424Z,97512.19
2018-04-07T11:02:39.935Z,97516.33
2018-04-07T11:03:45.263Z,97520.09
2018-04-07T11:04:50.598Z,97505.86
2018-04-07T11:05:56.089Z,97512.17
2018-04-07T11:07:01.340Z,97522.16
2018-04-07T11:08:07.243Z,97525.73
2018-04-07T11:09:12.827Z,97519.29
2018-04-07T11:10:18.879Z,97525.28
2018-04-07T11:11:24.309Z,97522.03
2018-04-07T11:12:29.753Z,97506.28
2018-04-07T11:13:35.036Z,97514.86
2018-04-07T11:14:40.610Z,97511.84
2018-04-07T11:15:46.153Z,97513.11
2018-04-07T11:16:56.107Z,97510.79
2018-04-07T11:18:02.302Z,97509.78
2018-04-07T11:19:08.913Z,97509.41
2018-04-07T11:20:14.509Z,97503.52
2018-04-07T11:21:20.388Z,97509.91
2018-04-07T11:22:26.726Z,97510.67
2018-04-07T11:23:32.981Z,97510.45
2018-04-07T11:24:38.417Z,97502.96
2018-04-07T11:25:43.981Z,97499.38
2018-04-07T11:26:49.386Z,97503.39
2018-04-07T11:27:54.797Z,97498.14
2018-04-07T11:29:00.407Z,97496.80
2018-04-07T11:30:06.282Z,97499.70
2018-04-07T11:31:11.658Z,97497.77
2018-04-07T11:32:17.096Z,97502.80
2018-04-07T11:33:22.498Z,97496.92
2018-04-07T11:34:27.944Z,97496.02
2018-04-07T11:35:33.511Z,97482.39
2018-04-07T11:36:39.324Z,97491.45
2018-04-07T11:37:44.657Z,97487.52
2018-04-07T11:38:49.926Z,97485.41
2018-04-07T11:39:55.706Z,97487.47
2018-04-07T11:41:01.121Z,97490.55
2018-04-07T11:42:06.568Z,97488.77
2018-04-07T11:43:13.045Z,97481.50
2018-04-07T11:44:18.494Z,97489.07
2018-04-07T11:45:23.925Z,97486.70
2018-04-07T11:46:29.207Z,97485.44
2018-04-07T11:47:35.602Z,97483.50
2018-04-07T11:48:41.137Z,97479.09
2018-04-07T11:49:47.413Z,97481.39
2018-04-07T11:50:52.858Z,97487.17
2018-04-07T11:51:58.352Z,97489.42
2018-04-07T11:53:03.955Z,97483.66
2018-04-07T11:54:09.591Z,97487.41
2018-04-07T11:55:15.131Z,97487.39
2018-04-07T11:56:20.527Z,97481.47
2018-04-07T11:57:25.844Z,97481.14
2018-04-07T11:58:31.019Z,97474.02
2018-04-07T11:59:36.701Z,97476.76
2018-04-07T12:00:42.270Z,97480.98
2018-04-07T12:01:47.744Z,97484.00
2018-04-07T12:02:53.682Z,97490.54
2018-04-07T12:03:59.220Z,97475.88
2018-04-07T12:05:04.680Z,97478.50
2018-04-07T12:06:10.469Z,97472.05
2018-04-07T12:07:15.897Z,97469.78
2018-04-07T12:08:21.410Z,97477.70
2018-04-07T12:09:26.910Z,97481.43
2018-04-07T12:10:32.346Z,97485.28
2018-04-07T12:11:37.976Z,97479.08
2018-04-07T12:12:44.177Z,97479.23
2018-04-07T12:13:50.141Z,97477.78
2018-04-07T12:14:56.016Z,97483.14
2018-04-07T12:16:01.514Z,97471.22
2018-04-07T12:17:07.280Z,97471.94
2018-04-07T12:18:13.662Z,97474.34
2018-04-07T12:19:19.539Z,97472.41
2018-04-07T12:20:24.884Z,97475.15
2018-04-07T12:21:30.660Z,97467.08
2018-04-07T12:22:36.038Z,97468.14
2018-04-07T12:23:41.811Z,97470.86
2018-04-07T12:24:47.322Z,97467.13
2018-04-07T12:25:53.005Z,97464.39
2018-04-07T12:26:58.629Z,97470.23
2018-04-07T12:28:04.628Z,97466.05
2018-04-07T12:29:10.400Z,97466.50
2018-04-07T12:30:15.945Z,97460.94
2018-04-07T12:31:21.641Z,97461.02
2018-04-07T12:32:27.575Z,97461.05
2018-04-07T12:33:34.896Z,97450.75
2018-04-07T12:34:41.554Z,97446.77
2018-04-07T12:35:48.279Z,97446.97
2018-04-07T12:36:53.888Z,97448.78
2018-04-07T12:37:59.349Z,97445.80
2018-04-07T12:39:05.000Z,97450.97
2018-04-07T12:40:10.298Z,97451.59
2018-04-07T12:41:16.623Z,97446.03
2018-04-07T12:42:21.959Z,97449.25
2018-04-07T12:43:27.406Z,97453.00
2018-04-07T12:44:32.942Z,97441.27
2018-04-07T12:45:38.483Z,97439.64
2018-04-07T12:46:43.950Z,97444.40
2018-04-07T12:47:49.853Z,97436.78
2018-04-07T12:48:55.365Z,97442.34
2018-04-07T12:50:01.162Z,97439.59
2018-04-07T12:51:06.840Z,97436.52
2018-04-07T12:52:12.606Z,97435.78
2018-04-07T12:53:18.324Z,97428.67